Time;durP1;ratioP1;P1;durP2;ratioP2;P2;SDS_P1;SDS_P2;PMS_P1;PMS_P2;Temp;Humidity;BMP_temperature;BMP_pressure;BME280_temperature;BME280_humidity;BME280_pressure;Samples;Min_cycle;Max_cycle;Signal;HPM_P1;HPM_P2
2023/11/10 00:00:12;;;;;;;14.77;4.03;;;;;;;5.86;100.00;99531.72;5045916;28;20028;-74
2023/11/10 00:02:42;;;;;;;15.05;3.78;;;;;;;5.91;100.00;99537.81;5044228;28;20029;-73
2023/11/10 00:05:09;;;;;;;14.85;3.78;;;;;;;5.93;100.00;99515.97;5045724;28;20060;-74
2023/11/10 00:07:35;;;;;;;14.93;3.58;;;;;;;5.95;100.00;99513.34;5044457;28;20064;-74
2023/11/10 00:10:03;;;;;;;15.60;3.65;;;;;;;6.04;100.00;99500.31;5044927;28;20409;-73
2023/11/10 00:12:28;;;;;;;13.07;3.50;;;;;;;6.07;100.00;99492.44;5045261;28;20383;-74
2023/11/10 00:14:54;;;;;;;12.63;3.45;;;;;;;6.08;100.00;99488.06;5043623;28;20025;-73
2023/11/10 00:17:20;;;;;;;12.68;3.33;;;;;;;6.13;100.00;99496.81;5046638;28;20103;-74
2023/11/10 00:19:46;;;;;;;11.45;3.22;;;;;;;6.13;100.00;99486.31;5042939;28;20060;-73
2023/11/10 00:22:11;;;;;;;13.52;3.40;;;;;;;6.13;100.00;99475.81;5046357;28;20061;-73
2023/11/10 00:24:39;;;;;;;16.15;3.50;;;;;;;6.17;100.00;99480.19;5043836;28;20486;-73
2023/11/10 00:27:05;;;;;;;14.32;3.15;;;;;;;6.19;100.00;99494.19;5044764;28;20476;-74
2023/11/10 00:29:30;;;;;;;12.40;3.20;;;;;;;6.23;100.00;99481.94;5044855;28;20469;-74
2023/11/10 00:31:56;;;;;;;13.32;3.30;;;;;;;6.23;100.00;99474.94;5043531;28;20029;-74
2023/11/10 00:34:21;;;;;;;13.05;3.20;;;;;;;6.25;100.00;99483.69;5045658;28;20088;-73
2023/11/10 00:36:47;;;;;;;8.27;2.90;;;;;;;6.20;100.00;99474.91;5042836;28;20029;-73
2023/11/10 00:39:12;;;;;;;13.90;3.15;;;;;;;6.25;100.00;99478.44;5045961;28;20104;-74
2023/11/10 00:41:37;;;;;;;12.77;2.90;;;;;;;6.27;100.00;99484.53;5043384;28;20036;-74
2023/11/10 00:44:03;;;;;;;12.00;3.00;;;;;;;6.27;100.00;99492.41;5044577;28;20018;-73
2023/11/10 00:46:28;;;;;;;11.48;3.03;;;;;;;6.24;100.00;99487.19;5044524;28;20078;-73
2023/11/10 00:48:54;;;;;;;11.25;3.05;;;;;;;6.26;100.00;99481.94;5043032;28;20550;-73
2023/11/10 00:51:19;;;;;;;12.02;3.10;;;;;;;6.24;100.00;99491.56;5046340;28;20029;-73
2023/11/10 00:53:45;;;;;;;11.65;2.90;;;;;;;6.27;100.00;99489.78;5038445;28;20392;-73
2023/11/10 00:56:10;;;;;;;13.90;3.03;;;;;;;6.32;100.00;99481.06;5045076;28;20392;-73
2023/11/10 00:58:36;;;;;;;13.35;3.13;;;;;;;6.27;100.00;99484.53;5043845;28;20033;-74
2023/11/10 01:01:01;;;;;;;12.25;3.00;;;;;;;6.30;100.00;99477.56;5042628;28;20029;-73
2023/11/10 01:03:27;;;;;;;12.20;3.10;;;;;;;6.31;100.00;99489.81;5044735;28;20384;-71
2023/11/10 01:05:52;;;;;;;12.07;3.03;;;;;;;6.29;100.00;99481.91;5041267;28;20025;-73
2023/11/10 01:08:17;;;;;;;11.57;3.13;;;;;;;6.31;100.00;99485.44;5045569;28;20033;-74
2023/11/10 01:10:43;;;;;;;13.90;3.00;;;;;;;6.31;100.00;99480.19;5042051;28;20017;-74
2023/11/10 01:13:08;;;;;;;12.43;3.10;;;;;;;6.31;100.00;99477.56;5043771;28;20026;-74
2023/11/10 01:15:34;;;;;;;12.98;3.00;;;;;;;6.28;100.00;99483.69;5043320;28;20032;-74
2023/11/10 01:17:59;;;;;;;13.07;3.33;;;;;;;6.30;100.00;99478.44;5041891;28;20026;-74
2023/11/10 01:20:24;;;;;;;14.13;3.10;;;;;;;6.30;100.00;99475.81;5044774;28;20030;-74
2023/11/10 01:22:50;;;;;;;16.95;3.10;;;;;;;6.29;100.00;99466.19;5041716;28;20469;-74
2023/11/10 01:25:15;;;;;;;11.38;3.10;;;;;;;6.39;100.00;99477.56;5045240;28;20490;-74
2023/11/10 01:27:41;;;;;;;10.77;2.90;;;;;;;6.40;100.00;99467.06;5042380;28;20465;-74
2023/11/10 01:30:07;;;;;;;11.52;2.90;;;;;;;6.38;100.00;99465.31;5043819;28;20040;-74
2023/11/10 01:32:34;;;;;;;11.88;3.10;;;;;;;6.37;100.00;99463.56;5043272;28;20033;-74
2023/11/10 01:34:59;;;;;;;15.43;3.10;;;;;;;6.38;100.00;99471.44;5042760;28;20025;-74
2023/11/10 01:37:25;;;;;;;13.38;3.38;;;;;;;6.38;100.00;99471.44;5044328;28;20095;-74
2023/11/10 01:39:50;;;;;;;15.02;3.20;;;;;;;6.37;100.00;99467.06;5041637;28;20044;-74
2023/11/10 01:42:16;;;;;;;14.05;3.05;;;;;;;6.32;100.00;99460.06;5044877;28;20036;-74
2023/11/10 01:44:42;;;;;;;13.93;3.13;;;;;;;6.25;100.00;99465.31;5041834;28;20052;-71
2023/11/10 01:47:07;;;;;;;12.90;3.13;;;;;;;6.28;100.00;99456.56;5043795;28;20040;-74
2023/11/10 01:49:33;;;;;;;11.25;3.13;;;;;;;6.40;100.00;99456.56;5042851;28;20029;-73
2023/11/10 01:52:00;;;;;;;11.48;3.00;;;;;;;6.36;100.00;99460.03;5042641;28;20034;-74
2023/11/10 01:54:34;;;;;;;12.43;3.00;;;;;;;6.45;100.00;99451.28;5044161;28;20421;-74
2023/11/10 01:57:00;;;;;;;10.85;3.20;;;;;;;6.46;100.00;99455.69;5042453;28;20032;-74
2023/11/10 01:59:26;;;;;;;12.80;3.10;;;;;;;6.46;100.00;99453.06;5044050;28;20029;-73
2023/11/10 02:01:51;;;;;;;12.65;3.20;;;;;;;6.44;100.00;99449.56;5041371;28;20481;-73
2023/11/10 02:04:17;;;;;;;12.43;3.20;;;;;;;6.47;100.00;99452.19;5044531;28;20036;-74
2023/11/10 02:06:44;;;;;;;9.95;2.90;;;;;;;6.48;100.00;99450.41;5041590;28;20030;-73
2023/11/10 02:09:10;;;;;;;12.13;3.03;;;;;;;6.55;100.00;99441.66;5042541;28;20399;-74
2023/11/10 02:11:38;;;;;;;14.30;3.38;;;;;;;6.50;100.00;99446.94;5042383;28;20021;-73
2023/11/10 02:14:05;;;;;;;11.40;3.15;;;;;;;6.51;100.00;99443.44;5041342;28;20025;-73
2023/11/10 02:16:30;;;;;;;10.77;3.08;;;;;;;6.56;100.00;99441.66;5043165;28;20074;-74
2023/11/10 02:18:56;;;;;;;13.98;3.00;;;;;;;6.53;100.00;99433.78;5041501;28;20033;-74
2023/11/10 02:21:22;;;;;;;10.52;2.80;;;;;;;6.52;100.00;99437.28;5044330;28;20024;-74
2023/11/10 02:23:51;;;;;;;10.40;2.80;;;;;;;6.47;100.00;99438.19;5039240;28;20017;-73
2023/11/10 02:26:17;;;;;;;9.38;2.70;;;;;;;6.40;100.00;99440.81;5036621;28;20042;-74
2023/11/10 02:28:42;;;;;;;8.90;2.55;;;;;;;6.40;100.00;99443.44;5043872;28;20075;-74
2023/11/10 02:31:08;;;;;;;11.45;3.00;;;;;;;6.37;100.00;99447.81;5041976;28;20029;-75
2023/11/10 02:33:36;;;;;;;8.15;2.47;;;;;;;6.37;100.00;99450.44;5042199;28;20045;-74
2023/11/10 02:36:02;;;;;;;8.15;2.42;;;;;;;6.39;100.00;99440.81;5042737;28;20495;-74
2023/11/10 02:38:27;;;;;;;8.35;2.50;;;;;;;6.42;100.00;99435.53;5041614;28;20049;-71
2023/11/10 02:40:52;;;;;;;8.30;2.65;;;;;;;6.43;100.00;99439.94;5043886;28;20033;-71
2023/11/10 02:43:18;;;;;;;12.00;2.60;;;;;;;6.42;100.00;99448.69;5040907;28;20022;-72
2023/11/10 02:45:43;;;;;;;6.88;2.20;;;;;;;6.36;100.00;99446.06;5043583;28;20040;-71
2023/11/10 02:48:09;;;;;;;7.43;2.38;;;;;;;6.32;100.00;99450.44;5041494;28;20531;-71
2023/11/10 02:50:35;;;;;;;6.65;2.35;;;;;;;6.39;100.00;99460.06;5042532;28;20037;-71
2023/11/10 02:53:00;;;;;;;9.20;2.40;;;;;;;6.37;100.00;99447.81;5042692;28;20055;-71
2023/11/10 02:55:25;;;;;;;13.63;2.55;;;;;;;6.34;100.00;99451.31;5041116;28;20017;-72
2023/11/10 02:57:51;;;;;;;10.27;2.60;;;;;;;6.37;100.00;99446.06;5044349;28;20029;-71
2023/11/10 03:00:17;;;;;;;7.65;2.40;;;;;;;6.44;100.00;99450.44;5040430;28;20172;-72
2023/11/10 03:02:42;;;;;;;8.27;2.50;;;;;;;6.38;100.00;99460.94;5043216;28;20037;-72
2023/11/10 03:05:07;;;;;;;8.70;2.50;;;;;;;6.38;100.00;99457.47;5041735;28;20095;-71
2023/11/10 03:07:33;;;;;;;9.35;2.63;;;;;;;6.34;100.00;99471.44;5042018;28;20392;-71
2023/11/10 03:09:58;;;;;;;9.93;2.72;;;;;;;6.36;100.00;99464.44;5041402;28;20388;-71
2023/11/10 03:12:24;;;;;;;9.90;2.80;;;;;;;6.34;100.00;99448.69;5040898;28;20030;-71
2023/11/10 03:14:50;;;;;;;11.88;2.78;;;;;;;6.29;100.00;99466.19;5043773;28;20110;-71
2023/11/10 03:17:16;;;;;;;8.77;2.65;;;;;;;6.32;100.00;99449.56;5040529;28;20033;-72
2023/11/10 03:19:41;;;;;;;11.23;2.70;;;;;;;6.33;100.00;99460.06;5043212;28;20113;-71
2023/11/10 03:22:07;;;;;;;9.57;2.65;;;;;;;6.26;100.00;99448.69;5041549;28;20076;-71
2023/11/10 03:24:32;;;;;;;10.35;2.55;;;;;;;6.21;100.00;99444.31;5041919;28;20021;-71
2023/11/10 03:26:58;;;;;;;9.90;2.75;;;;;;;6.17;100.00;99445.19;5042546;28;20033;-72
2023/11/10 03:29:23;;;;;;;9.95;2.72;;;;;;;6.19;100.00;99441.69;5040661;28;20445;-72
2023/11/10 03:31:48;;;;;;;11.95;2.80;;;;;;;6.16;100.00;99452.22;5043872;28;20116;-71
2023/11/10 03:34:15;;;;;;;10.50;2.67;;;;;;;6.15;100.00;99447.81;5040254;28;20092;-72
2023/11/10 03:36:40;;;;;;;8.43;2.70;;;;;;;6.09;100.00;99456.56;5046281;28;20033;-71
2023/11/10 03:39:06;;;;;;;10.45;2.72;;;;;;;6.10;100.00;99454.81;5045350;28;20476;-71
2023/11/10 03:41:31;;;;;;;9.30;2.80;;;;;;;6.15;100.00;99442.56;5045069;28;20044;-71
2023/11/10 03:43:57;;;;;;;11.45;2.70;;;;;;;6.16;100.00;99446.06;5046334;28;20032;-72
2023/11/10 03:46:22;;;;;;;11.73;2.70;;;;;;;6.17;100.00;99438.19;5043840;28;20121;-72
2023/11/10 03:48:48;;;;;;;8.82;2.60;;;;;;;6.13;100.00;99443.44;5046953;28;20053;-71
2023/11/10 03:51:13;;;;;;;9.93;2.70;;;;;;;6.16;100.00;99453.94;5043952;28;20086;-71
2023/11/10 03:53:42;;;;;;;8.23;2.60;;;;;;;6.12;100.00;99447.81;5045944;28;20108;-71
2023/11/10 03:56:07;;;;;;;10.77;2.53;;;;;;;6.21;100.00;99441.69;5044759;28;20545;-71
2023/11/10 03:58:34;;;;;;;11.23;2.70;;;;;;;6.12;100.00;99442.56;5044889;28;20492;-71
2023/11/10 04:00:59;;;;;;;9.75;2.50;;;;;;;6.07;100.00;99447.84;5045883;28;20040;-71
2023/11/10 04:03:24;;;;;;;11.15;2.70;;;;;;;6.02;100.00;99456.56;5043635;28;20484;-71
2023/11/10 04:05:50;;;;;;;10.57;2.70;;;;;;;6.07;100.00;99449.56;5046805;28;20029;-71
2023/11/10 04:08:16;;;;;;;10.23;2.60;;;;;;;5.91;100.00;99452.16;5043375;28;20024;-71
2023/11/10 04:10:41;;;;;;;12.73;2.53;;;;;;;5.86;100.00;99450.41;5045794;28;20033;-71
2023/11/10 04:13:07;;;;;;;8.88;2.50;;;;;;;5.83;100.00;99451.25;5044625;28;20036;-71
2023/11/10 04:15:32;;;;;;;9.00;2.55;;;;;;;5.86;100.00;99443.38;5044438;28;20033;-71
2023/11/10 04:18:00;;;;;;;11.80;2.60;;;;;;;5.78;100.00;99458.22;5045656;28;20100;-72
2023/11/10 04:20:25;;;;;;;9.90;2.67;;;;;;;5.74;100.00;99446.88;5043719;28;20108;-71
2023/11/10 04:22:51;;;;;;;10.75;2.50;;;;;;;5.71;100.00;99451.25;5046371;28;20113;-74
2023/11/10 04:25:17;;;;;;;9.07;2.67;;;;;;;5.68;100.00;99459.09;5042711;28;20545;-74
2023/11/10 04:27:43;;;;;;;8.82;2.50;;;;;;;5.64;100.00;99458.22;5045775;28;20098;-74
2023/11/10 04:30:09;;;;;;;9.75;2.60;;;;;;;5.67;100.00;99454.75;5043950;28;20108;-74
2023/11/10 04:32:36;;;;;;;11.23;2.60;;;;;;;5.59;100.00;99458.22;5044325;28;20045;-74
2023/11/10 04:35:01;;;;;;;9.63;2.53;;;;;;;5.54;100.00;99465.19;5045035;28;20419;-74
2023/11/10 04:37:28;;;;;;;9.90;2.50;;;;;;;5.59;100.00;99459.94;5043281;28;20026;-74
2023/11/10 04:39:53;;;;;;;10.75;2.75;;;;;;;5.68;100.00;99445.97;5045887;28;20151;-74
2023/11/10 04:42:19;;;;;;;8.90;2.50;;;;;;;5.63;100.00;99452.97;5042819;28;20037;-74
2023/11/10 04:44:45;;;;;;;10.38;2.50;;;;;;;5.63;100.00;99455.59;5044408;28;20426;-74
2023/11/10 04:47:11;;;;;;;10.32;2.60;;;;;;;5.61;100.00;99452.06;5043140;28;20086;-74
2023/11/10 04:49:38;;;;;;;11.00;2.70;;;;;;;5.48;100.00;99445.94;5044462;28;20473;-74
2023/11/10 04:52:04;;;;;;;12.00;2.60;;;;;;;5.45;100.00;99461.69;5044312;28;20036;-74
2023/11/10 04:54:30;;;;;;;11.95;2.60;;;;;;;5.38;100.00;99460.75;5043334;28;20040;-73
2023/11/10 04:56:55;;;;;;;15.15;2.60;;;;;;;5.39;100.00;99466.00;5045460;28;20472;-74
2023/11/10 04:59:20;;;;;;;9.45;2.70;;;;;;;5.40;100.00;99446.81;5042263;28;20025;-74
2023/11/10 05:01:46;;;;;;;8.32;2.70;;;;;;;5.35;100.00;99450.28;5044346;28;20082;-74
2023/11/10 05:04:13;;;;;;;10.48;2.80;;;;;;;5.40;100.00;99443.28;5042952;28;20052;-74
2023/11/10 05:06:38;;;;;;;12.30;2.78;;;;;;;5.35;100.00;99443.28;5044194;28;20029;-74
2023/11/10 05:09:07;;;;;;;13.75;2.97;;;;;;;5.34;100.00;99452.00;5044130;28;20044;-74
2023/11/10 05:11:36;;;;;;;14.52;2.67;;;;;;;5.31;100.00;99457.22;5043640;28;20413;-73
2023/11/10 05:14:01;;;;;;;13.45;3.03;;;;;;;5.28;100.00;99457.22;5044074;28;20017;-74
2023/11/10 05:16:29;;;;;;;12.48;2.70;;;;;;;5.20;100.00;99458.97;5042735;28;20393;-73
2023/11/10 05:18:56;;;;;;;10.05;2.80;;;;;;;5.20;100.00;99458.97;5043872;28;20032;-74
2023/11/10 05:21:22;;;;;;;11.70;2.70;;;;;;;5.26;100.00;99468.56;5041900;28;20029;-74
2023/11/10 05:23:47;;;;;;;11.63;2.90;;;;;;;5.30;100.00;99457.22;5045551;28;20356;-71
2023/11/10 05:26:13;;;;;;;11.60;2.83;;;;;;;5.26;100.00;99458.97;5042385;28;20384;-74
2023/11/10 05:28:38;;;;;;;13.27;2.85;;;;;;;5.28;100.00;99464.22;5043781;28;20037;-74
2023/11/10 05:31:04;;;;;;;11.68;3.00;;;;;;;5.27;100.00;99457.22;5043726;28;20112;-71
2023/11/10 05:33:29;;;;;;;12.13;2.78;;;;;;;5.17;100.00;99454.59;5042325;28;20052;-71
2023/11/10 05:35:55;;;;;;;15.35;2.95;;;;;;;5.17;100.00;99459.81;5044739;28;20080;-72
2023/11/10 05:38:20;;;;;;;12.60;2.80;;;;;;;5.18;100.00;99461.53;5041639;28;20128;-70
2023/11/10 05:40:46;;;;;;;15.65;3.10;;;;;;;5.15;100.00;99461.53;5044529;28;20025;-71
2023/11/10 05:43:11;;;;;;;14.75;2.80;;;;;;;5.12;100.00;99466.78;5040993;28;20379;-71
2023/11/10 05:45:37;;;;;;;11.80;2.58;;;;;;;5.10;100.00;99468.53;5043365;28;20030;-70
2023/11/10 05:48:02;;;;;;;13.07;2.67;;;;;;;5.10;100.00;99473.75;5043426;28;20033;-71
2023/11/10 05:50:28;;;;;;;13.85;2.80;;;;;;;5.10;100.00;99465.00;5041909;28;20108;-71
2023/11/10 05:52:53;;;;;;;13.77;3.00;;;;;;;5.01;100.00;99473.69;5044854;28;20043;-70
2023/11/10 05:55:18;;;;;;;9.48;2.60;;;;;;;4.96;100.00;99476.28;5041215;28;20037;-71
2023/11/10 05:57:44;;;;;;;13.65;3.00;;;;;;;5.00;100.00;99478.06;5043708;28;20029;-70
2023/11/10 06:00:10;;;;;;;12.48;2.80;;;;;;;4.94;100.00;99466.69;5042484;28;20108;-71
2023/11/10 06:02:35;;;;;;;9.82;2.40;;;;;;;4.85;100.00;99472.75;5042662;28;20121;-71
2023/11/10 06:05:04;;;;;;;12.18;2.90;;;;;;;4.78;100.00;99484.94;5043505;28;20429;-70
2023/11/10 06:07:31;;;;;;;14.90;2.90;;;;;;;4.78;100.00;99482.31;5042015;28;20033;-71
2023/11/10 06:09:56;;;;;;;13.05;2.67;;;;;;;4.76;100.00;99483.16;5043916;28;20151;-71
2023/11/10 06:12:23;;;;;;;13.50;2.90;;;;;;;4.77;100.00;99498.00;5041232;28;20022;-70
2023/11/10 06:14:48;;;;;;;10.45;2.65;;;;;;;4.78;100.00;99484.06;5037086;28;20026;-71
2023/11/10 06:17:14;;;;;;;11.85;2.78;;;;;;;4.77;100.00;99485.78;5043697;28;20037;-70
2023/11/10 06:19:39;;;;;;;12.07;2.80;;;;;;;4.76;100.00;99489.28;5042296;28;20115;-70
2023/11/10 06:22:04;;;;;;;11.75;2.75;;;;;;;4.85;100.00;99491.09;5041053;28;20041;-71
2023/11/10 06:24:30;;;;;;;11.93;2.70;;;;;;;4.92;100.00;99500.72;5043376;28;20098;-70
2023/11/10 06:26:56;;;;;;;9.50;2.40;;;;;;;4.90;100.00;99481.50;5041085;28;20431;-70
2023/11/10 06:29:21;;;;;;;13.10;3.00;;;;;;;4.98;100.00;99476.31;5044100;28;20035;-71
2023/11/10 06:31:47;;;;;;;10.27;2.60;;;;;;;4.97;100.00;99478.06;5039687;28;20029;-70
2023/11/10 06:34:13;;;;;;;15.80;2.90;;;;;;;4.95;100.00;99497.25;5043428;28;20049;-71
2023/11/10 06:36:38;;;;;;;11.10;2.50;;;;;;;4.92;100.00;99497.22;5042090;28;20021;-70
2023/11/10 06:39:04;;;;;;;13.95;2.72;;;;;;;4.96;100.00;99491.16;5041963;28;20477;-71
2023/11/10 06:41:29;;;;;;;12.23;2.60;;;;;;;4.89;100.00;99504.22;5043386;28;20033;-71
2023/11/10 06:43:55;;;;;;;10.82;2.75;;;;;;;4.91;100.00;99505.94;5039465;28;20366;-71
2023/11/10 06:46:22;;;;;;;13.55;3.10;;;;;;;4.92;100.00;99507.69;5042822;28;20061;-71
2023/11/10 06:48:51;;;;;;;12.77;2.80;;;;;;;4.91;100.00;99506.84;5041130;28;20034;-70
2023/11/10 06:51:18;;;;;;;13.40;3.03;;;;;;;4.98;100.00;99512.97;5043648;28;20480;-71
2023/11/10 06:53:44;;;;;;;14.38;3.10;;;;;;;4.95;100.00;99506.00;5041202;28;20112;-70
2023/11/10 06:56:12;;;;;;;15.50;3.38;;;;;;;4.92;100.00;99505.09;5042805;28;20084;-70
2023/11/10 06:58:37;;;;;;;15.18;3.20;;;;;;;4.94;100.00;99493.75;5041932;28;20040;-70
2023/11/10 07:01:06;;;;;;;14.23;3.30;;;;;;;4.94;100.00;99496.38;5041426;28;20389;-70
2023/11/10 07:03:32;;;;;;;13.40;3.40;;;;;;;5.02;100.00;99489.44;5043083;28;20031;-71
2023/11/10 07:05:57;;;;;;;13.95;3.50;;;;;;;5.04;100.00;99492.94;5040809;28;20465;-71
2023/11/10 07:08:23;;;;;;;16.13;3.50;;;;;;;5.09;100.00;99487.72;5043782;28;20048;-71
2023/11/10 07:10:53;;;;;;;14.38;3.47;;;;;;;5.13;100.00;99491.25;5042953;28;20509;-71
2023/11/10 07:13:18;;;;;;;18.13;3.67;;;;;;;5.16;100.00;99486.88;5047530;28;20484;-71
2023/11/10 07:15:45;;;;;;;16.50;3.60;;;;;;;5.17;100.00;99491.25;5044771;28;20048;-70
2023/11/10 07:18:11;;;;;;;16.65;3.60;;;;;;;5.19;100.00;99483.41;5046609;28;20026;-71
2023/11/10 07:20:37;;;;;;;14.05;3.22;;;;;;;5.21;100.00;99487.78;5045849;28;20037;-71
2023/11/10 07:23:02;;;;;;;14.95;3.45;;;;;;;5.24;100.00;99481.66;5045183;28;20116;-71
2023/11/10 07:25:30;;;;;;;16.23;3.65;;;;;;;5.25;100.00;99478.19;5046962;28;20037;-71
2023/11/10 07:27:55;;;;;;;17.15;3.88;;;;;;;5.25;100.00;99488.66;5044067;28;20528;-71
2023/11/10 07:30:22;;;;;;;13.88;3.55;;;;;;;5.36;100.00;99496.59;5047324;28;20117;-71
2023/11/10 07:32:51;;;;;;;14.27;3.28;;;;;;;5.39;100.00;99494.84;5044047;28;21436;-71
2023/11/10 07:35:20;;;;;;;13.93;3.00;;;;;;;5.45;100.00;99490.50;5046747;28;20063;-71
2023/11/10 07:37:45;;;;;;;13.63;3.08;;;;;;;5.48;100.00;99480.91;5044511;28;20357;-70
2023/11/10 07:40:13;;;;;;;15.35;3.03;;;;;;;5.50;100.00;99481.75;5046232;28;20029;-71
2023/11/10 07:42:43;;;;;;;16.88;3.75;;;;;;;5.52;100.00;99495.78;5045403;28;20349;-71
2023/11/10 07:45:15;;;;;;;17.52;3.30;;;;;;;5.54;100.00;99496.63;5045482;28;20029;-71
2023/11/10 07:47:44;;;;;;;16.13;3.10;;;;;;;5.62;100.00;99477.44;5044990;28;20039;-71
2023/11/10 07:50:10;;;;;;;17.95;3.60;;;;;;;5.60;100.00;99477.44;5045789;28;20116;-71
2023/11/10 07:52:37;;;;;;;16.05;3.67;;;;;;;5.59;100.00;99480.91;5045338;28;20078;-71
2023/11/10 07:55:04;;;;;;;17.38;3.40;;;;;;;5.63;100.00;99473.94;5044616;28;20025;-71
2023/11/10 07:57:30;;;;;;;15.25;3.25;;;;;;;5.67;100.00;99476.56;5046305;28;20029;-71
2023/11/10 07:59:55;;;;;;;17.35;3.22;;;;;;;5.74;100.00;99477.47;5043518;28;20021;-71
2023/11/10 08:02:20;;;;;;;15.90;3.20;;;;;;;5.75;100.00;99467.00;5046916;28;20430;-71
2023/11/10 08:04:46;;;;;;;18.38;3.72;;;;;;;5.74;100.00;99478.34;5042515;28;20040;-71
2023/11/10 08:07:12;;;;;;;15.65;3.30;;;;;;;5.74;100.00;99480.09;5045653;28;20523;-70
2023/11/10 08:09:37;;;;;;;16.08;3.25;;;;;;;5.76;100.00;99478.34;5045019;28;20058;-70
2023/11/10 08:12:03;;;;;;;14.20;3.20;;;;;;;5.86;100.00;99474.88;5044285;28;20596;-71
2023/11/10 08:14:29;;;;;;;14.52;3.00;;;;;;;5.87;100.00;99463.50;5044615;28;20079;-71
2023/11/10 08:16:54;;;;;;;18.98;3.47;;;;;;;5.94;100.00;99473.13;5043272;28;20109;-71
2023/11/10 08:19:20;;;;;;;17.40;3.17;;;;;;;6.02;100.00;99470.56;5038996;28;20032;-71
2023/11/10 08:21:45;;;;;;;16.52;3.30;;;;;;;6.00;100.00;99458.28;5045135;28;20025;-70
2023/11/10 08:24:11;;;;;;;12.63;3.00;;;;;;;6.10;100.00;99473.16;5044291;28;20029;-73
2023/11/10 08:26:38;;;;;;;16.40;3.33;;;;;;;6.08;100.00;99456.56;5044280;28;20034;-74
2023/11/10 08:29:04;;;;;;;16.25;3.20;;;;;;;6.14;100.00;99464.44;5045022;28;20431;-74
2023/11/10 08:31:29;;;;;;;17.33;3.42;;;;;;;6.24;100.00;99467.94;5043623;28;20075;-74
2023/11/10 08:33:55;;;;;;;16.17;3.15;;;;;;;6.20;100.00;99453.06;5045840;28;20457;-74
2023/11/10 08:36:22;;;;;;;13.98;3.10;;;;;;;6.22;100.00;99473.19;5042807;28;20041;-73
2023/11/10 08:38:48;;;;;;;15.73;3.38;;;;;;;6.21;100.00;99462.69;5045897;28;20052;-72
2023/11/10 08:41:14;;;;;;;16.88;3.20;;;;;;;6.30;100.00;99472.31;5043329;28;20057;-74
2023/11/10 08:43:41;;;;;;;18.13;3.33;;;;;;;6.34;100.00;99460.94;5044525;28;20079;-74
2023/11/10 08:46:07;;;;;;;18.52;3.97;;;;;;;6.40;100.00;99448.69;5044375;28;20037;-74
2023/11/10 08:48:32;;;;;;;17.30;3.25;;;;;;;6.42;100.00;99448.69;5043517;28;20060;-74
2023/11/10 08:50:58;;;;;;;17.70;3.95;;;;;;;6.43;100.00;99460.94;5045347;28;20029;-74
2023/11/10 08:53:24;;;;;;;18.17;3.35;;;;;;;6.49;100.00;99462.69;5042615;28;20121;-74
2023/11/10 08:55:49;;;;;;;18.20;3.55;;;;;;;6.46;100.00;99458.31;5045574;28;20396;-75
2023/11/10 08:58:14;;;;;;;15.55;3.35;;;;;;;6.42;100.00;99457.44;5043149;28;20033;-74
2023/11/10 09:00:40;;;;;;;17.27;3.50;;;;;;;6.38;100.00;99460.94;5044159;28;20025;-74
2023/11/10 09:03:05;;;;;;;14.45;3.05;;;;;;;6.24;100.00;99453.06;5044131;28;20079;-70
2023/11/10 09:05:31;;;;;;;20.33;3.80;;;;;;;6.13;100.00;99459.19;5043015;28;20029;-71
2023/11/10 09:07:56;;;;;;;18.15;3.88;;;;;;;6.02;100.00;99456.56;5045619;28;20033;-71
2023/11/10 09:10:23;;;;;;;17.80;3.60;;;;;;;5.98;100.00;99460.06;5040848;28;20061;-71
2023/11/10 09:12:49;;;;;;;19.58;3.45;;;;;;;5.91;100.00;99467.00;5045366;28;20056;-70
2023/11/10 09:15:15;;;;;;;18.10;3.60;;;;;;;5.90;100.00;99483.63;5042756;28;20110;-70
2023/11/10 09:17:41;;;;;;;18.02;3.53;;;;;;;5.83;100.00;99479.25;5043950;28;20025;-69
2023/11/10 09:20:07;;;;;;;18.63;3.72;;;;;;;5.79;100.00;99473.09;5043812;28;20045;-70
2023/11/10 09:22:35;;;;;;;17.02;3.60;;;;;;;5.85;100.00;99478.34;5041488;28;20030;-70
2023/11/10 09:25:02;;;;;;;18.05;3.60;;;;;;;5.89;100.00;99476.63;5044506;28;20493;-70
2023/11/10 09:27:28;;;;;;;19.55;3.92;;;;;;;5.97;100.00;99468.75;5042028;28;20037;-71
2023/11/10 09:29:53;;;;;;;18.80;3.90;;;;;;;6.05;100.00;99472.31;5045437;28;20040;-70
2023/11/10 09:32:19;;;;;;;18.25;3.70;;;;;;;6.12;100.00;99481.94;5040974;28;20121;-70
2023/11/10 09:34:45;;;;;;;19.33;3.47;;;;;;;6.07;100.00;99478.41;5044191;28;20061;-70
2023/11/10 09:37:11;;;;;;;17.75;4.07;;;;;;;6.03;100.00;99472.31;5042914;28;20112;-69
2023/11/10 09:39:37;;;;;;;19.27;3.72;;;;;;;6.00;100.00;99476.66;5042959;28;20104;-69
2023/11/10 09:42:07;;;;;;;19.80;3.70;;;;;;;5.91;100.00;99469.63;5042920;28;20145;-70
2023/11/10 09:44:38;;;;;;;20.02;3.67;;;;;;;5.88;100.00;99472.25;5042280;28;20025;-70
2023/11/10 09:47:05;;;;;;;18.60;3.75;;;;;;;5.83;100.00;99469.63;5043599;28;20047;-74
2023/11/10 09:49:31;;;;;;;17.63;3.53;;;;;;;5.81;100.00;99468.75;5042104;28;20026;-74
2023/11/10 09:52:00;;;;;;;18.08;3.80;;;;;;;5.83;100.00;99472.25;5044598;28;20037;-74
2023/11/10 09:54:27;;;;;;;17.55;3.45;;;;;;;5.80;100.00;99458.25;5041262;28;20025;-74
2023/11/10 09:56:55;;;;;;;19.45;3.70;;;;;;;5.83;100.00;99469.63;5044899;28;20033;-74
2023/11/10 09:59:27;;;;;;;16.02;3.50;;;;;;;5.78;100.00;99463.47;5037351;28;20057;-74
2023/11/10 10:01:55;;;;;;;15.50;3.50;;;;;;;5.78;100.00;99460.84;5043267;28;20032;-70
2023/11/10 10:04:20;;;;;;;18.98;3.65;;;;;;;5.76;100.00;99463.47;5041116;28;20053;-74
2023/11/10 10:06:52;;;;;;;18.33;3.85;;;;;;;5.74;100.00;99470.47;5044140;28;20079;-73
2023/11/10 10:09:18;;;;;;;16.00;3.85;;;;;;;5.69;100.00;99473.97;5041472;28;20116;-73
2023/11/10 10:11:44;;;;;;;16.35;3.50;;;;;;;5.68;100.00;99454.75;5043317;28;20551;-73
2023/11/10 10:14:11;;;;;;;16.88;3.63;;;;;;;5.66;100.00;99469.56;5042565;28;20029;-73
2023/11/10 10:16:36;;;;;;;20.20;4.10;;;;;;;5.66;100.00;99466.09;5042278;28;20064;-74
2023/11/10 10:19:02;;;;;;;17.00;3.70;;;;;;;5.65;100.00;99464.31;5042246;28;20441;-74
2023/11/10 10:21:28;;;;;;;19.13;4.10;;;;;;;5.69;100.00;99485.31;5041317;28;20495;-74
2023/11/10 10:23:53;;;;;;;18.10;3.90;;;;;;;5.67;100.00;99479.19;5044493;28;20060;-74
2023/11/10 10:26:20;;;;;;;17.88;3.75;;;;;;;5.70;100.00;99466.09;5040792;28;20040;-73
2023/11/10 10:28:45;;;;;;;17.10;3.75;;;;;;;5.66;100.00;99452.97;5043587;28;20037;-73
2023/11/10 10:31:11;;;;;;;16.10;3.55;;;;;;;5.74;100.00;99456.50;5042062;28;20040;-70
2023/11/10 10:33:36;;;;;;;18.65;3.90;;;;;;;5.71;100.00;99453.88;5042324;28;20119;-70
2023/11/10 10:36:03;;;;;;;19.15;4.28;;;;;;;5.72;100.00;99443.38;5043506;28;20048;-70
2023/11/10 10:38:32;;;;;;;18.55;4.28;;;;;;;5.77;100.00;99467.00;5040965;28;20044;-70
2023/11/10 10:40:59;;;;;;;17.27;3.75;;;;;;;5.76;100.00;99441.63;5043927;28;20021;-70
2023/11/10 10:43:27;;;;;;;16.17;4.07;;;;;;;5.79;100.00;99452.13;5041053;28;20030;-70
2023/11/10 10:45:52;;;;;;;17.33;3.90;;;;;;;5.76;100.00;99445.13;5040813;28;20030;-70
2023/11/10 10:48:18;;;;;;;17.23;4.10;;;;;;;5.80;100.00;99451.25;5047737;28;20032;-69
2023/11/10 10:50:45;;;;;;;17.55;4.10;;;;;;;5.88;100.00;99446.91;5045815;28;20411;-69
2023/11/10 10:53:13;;;;;;;16.77;4.40;;;;;;;5.95;100.00;99450.41;5046555;28;20498;-70
2023/11/10 10:55:42;;;;;;;16.23;4.10;;;;;;;5.95;100.00;99447.78;5046337;28;20021;-70
2023/11/10 10:58:08;;;;;;;18.42;3.90;;;;;;;6.04;100.00;99449.56;5046256;28;20079;-70
2023/11/10 11:00:36;;;;;;;17.40;3.80;;;;;;;6.04;100.00;99454.81;5046948;28;20033;-70
2023/11/10 11:03:21;;;;;;;15.73;3.63;;;;;;;6.01;100.00;99453.06;5043798;28;20073;-70
2023/11/10 11:05:56;;;;;;;17.17;3.92;;;;;;;6.03;100.00;99445.19;5045030;28;20475;-70
2023/11/10 11:08:40;;;;;;;16.33;3.42;;;;;;;6.04;100.00;99450.47;5046712;28;20384;-75
2023/11/10 11:11:27;;;;;;;15.00;3.40;;;;;;;6.07;100.00;99450.44;5043443;28;20030;-75
2023/11/10 11:14:13;;;;;;;14.60;3.33;;;;;;;6.17;100.00;99446.06;5040502;28;20036;-74
2023/11/10 11:16:38;;;;;;;13.50;3.22;;;;;;;6.19;100.00;99446.94;5044215;28;20433;-74
2023/11/10 11:19:18;;;;;;;13.45;3.00;;;;;;;6.27;100.00;99442.56;5046413;28;20060;-75
2023/11/10 11:21:44;;;;;;;13.80;3.20;;;;;;;6.30;100.00;99436.44;5046490;28;20116;-74